• Join FlightAware (Why Join?)
  • Login
  • US Flag 
07:06PM EDT


 

Airport Tracker/Info


-or-


 

Live Flight TrackerFlight Track Log ✈ N934DL ✈ 10-Apr-2013 ✈ KLGA - KDTW

Flight Track Log - Related Links

Times and Time Zones

All times are in EDT time to prevent confusion due to time zone crossing. See the N934DL flight status page for this flight to view local times or setup timezone preferences in your user account.

Time Position Orientation Groundspeed Altitude Reporting Facility
EDT Latitude Longitude Course Direction KTS MPH feet Rate Location/Type
06:54PM 40.7833 -73.7833 37° Northeast 232 267 2,500  Level New York TRACON
06:55PM 40.8333 -73.7333 37° Northeast 274 315 4,700 2,700 Climbing New York TRACON
06:56PM 40.9167 -73.6833 24° Northeast 306 352 7,900 2,760 Climbing New York TRACON
06:58PM 41.0069 -73.5486 48° Northeast 317 365 11,900 1,980 Climbing Boston Center
06:59PM 41.0081 -73.4386 89° East 315 362 13,100 540 Climbing Boston Center
07:00PM 41.0875 -73.3983 21° North 279 321 13,100 420 Level Boston Center
07:01PM 41.1603 -73.4244 345° North 275 316 14,000 1,920 Climbing Boston Center
07:02PM 41.2625 -73.4150 North 323 372 17,000 2,640 Climbing Boston Center
07:03PM 41.3567 -73.3747 18° North 340 391 19,300 1,740 Climbing Boston Center
07:04PM 41.4675 -73.3239 19° North 345 397 21,000 1,260 Climbing Boston Center
07:05PM 41.5472 -73.2278 42° Northeast 357 411 22,100 1,260 Climbing Boston Center
07:06PM 41.6314 -73.1261 42° Northeast 377 434 23,500 1,380 Climbing Boston Center
07:07PM 41.7397 -73.1300 358° North 362 417 24,900 1,320 Climbing Boston Center
07:08PM 41.8481 -73.1481 353° North 370 426 26,300 1,260 Climbing Boston Center
07:09PM 41.9603 -73.1658 353° North 377 434 27,400 1,140 Climbing Boston Center
07:10PM 42.0728 -73.1869 352° North 395 455 28,600 1,080 Climbing Boston Center
07:11PM 42.1853 -73.2050 353° North 400 460 29,700 900 Climbing Boston Center
07:12PM 42.3039 -73.2261 353° North 412 474 30,500 780 Climbing Boston Center
07:13PM 42.4036 -73.2892 335° Northwest 400 460 31,300 780 Climbing Boston Center
07:14PM 42.4653 -73.3942 309° West 384 442 32,100 900 Climbing Boston Center
07:15PM 42.5372 -73.5022 312° West 390 449 33,200 840 Climbing Boston Center
07:16PM 42.6092 -73.6081 313° West 390 449 33,800 360 Climbing Boston Center
07:17PM 42.6808 -73.7139 313° West 390 449 34,000 60 Climbing Boston Center
07:18PM 42.7483 -73.8197 311° West 385 443 34,000 -60 Level Boston Center
07:19PM 42.8222 -73.9261 313° West 385 443 33,900  Descending Boston Center
07:20PM 42.8936 -74.0328 312° West 385 443 34,000  Climbing Boston Center
07:21PM 42.9439 -74.1533 300° West 379 436 33,900  Descending Boston Center
07:22PM 42.9628 -74.2872 281° West 361 415 34,000  Climbing Boston Center
07:23PM 42.9772 -74.4239 278° West 356 410 34,000  Level Boston Center
07:24PM 42.9936 -74.5550 280° West 362 417 34,000  Level Boston Center
07:25PM 43.0097 -74.6889 279° West 362 417 34,000  Level Boston Center
07:26PM 43.0236 -74.8231 278° West 362 417 34,000  Level Boston Center
07:27PM 43.0372 -74.9628 278° West 362 417 34,000  Level Boston Center
07:28PM 43.0508 -75.1025 278° West 373 429 34,000  Level Boston Center
07:29PM 43.0642 -75.2422 277° West 373 429 34,000  Level Boston Center
07:30PM 43.0792 -75.3936 278° West 373 429 34,000  Level Boston Center
07:31PM 43.0919 -75.5336 277° West 373 429 34,000  Level Boston Center
07:32PM 43.1069 -75.6681 279° West 373 429 34,000  Level Boston Center
07:33PM 43.1219 -75.8056 279° West 373 429 34,000  Level Boston Center
07:34PM 43.1344 -75.9428 277° West 373 429 34,000  Level Boston Center
07:35PM 43.1469 -76.0744 277° West 373 429 34,000  Level Boston Center
07:36PM 43.1517 -76.2914 272° West 362 417 34,000  Level Cleveland Center
07:37PM 43.1422 -76.4314 265° West 368 423 34,000  Level Cleveland Center
07:38PM 43.1283 -76.5661 262° West 368 423 34,000  Level Cleveland Center
07:39PM 43.1197 -76.6778 264° West 368 423 34,000  Level Cleveland Center
07:40PM 43.1042 -76.8381 262° West 368 423 34,000  Level Cleveland Center
07:41PM 43.0933 -76.9639 263° West 368 423 34,000  Level Cleveland Center
07:42PM 43.0831 -77.1008 264° West 368 423 34,000  Level Cleveland Center
07:43PM 43.0706 -77.2408 263° West 368 423 34,000  Level Cleveland Center
07:44PM 43.0578 -77.3836 263° West 368 423 34,000  Level Cleveland Center
07:45PM 43.0450 -77.5264 263° West 373 429 34,000  Level Cleveland Center
07:46PM 43.0319 -77.6661 263° West 373 429 34,000  Level Cleveland Center
07:47PM 43.0189 -77.8058 263° West 373 429 34,000  Level Cleveland Center
07:48PM 43.0053 -77.9458 262° West 373 429 34,000  Level Cleveland Center
07:49PM 42.9897 -78.0856 261° West 373 429 34,000  Level Cleveland Center
07:50PM 42.9739 -78.2253 261° West 373 429 34,000  Level Cleveland Center
07:51PM 42.9600 -78.3647 262° West 373 429 34,000  Level Cleveland Center
07:52PM 42.9458 -78.4986 262° West 373 429 34,000  Level Cleveland Center
07:53PM 42.9314 -78.6353 262° West 373 429 34,000  Level Cleveland Center
07:54PM 42.9192 -78.7772 263° West 373 429 34,000  Level Cleveland Center
07:55PM 42.9067 -78.9136 263° West 373 429 34,000  Level Cleveland Center
07:56PM 42.8939 -79.0500 263° West 373 429 34,000  Level Cleveland Center
07:57PM 42.8686 -79.1839 256° West 373 429 34,000  Level Cleveland Center
07:58PM 42.8178 -79.3039 240° Southwest 373 429 34,000  Level Cleveland Center
07:59PM 42.7650 -79.4294 240° Southwest 373 429 34,000  Level Cleveland Center
08:00PM 42.7308 -79.5628 251° West 379 436 34,000 -300 Level Cleveland Center
08:01PM 42.7278 -79.7069 268° West 379 436 33,400 -1,140 Descending Cleveland Center
08:02PM 42.7247 -79.8511 268° West 379 436 31,800 -1,500 Descending Cleveland Center
08:03PM 42.7214 -80.0153 268° West 389 448 30,500 -1,200 Descending Cleveland Center
08:04PM 42.7200 -80.1564 269° West 391 450 29,400 -1,260 Descending Cleveland Center
08:05PM 42.7161 -80.2978 268° West 384 442 28,000 -720 Descending Cleveland Center
08:06PM 42.7144 -80.4475 269° West 390 449 28,000  Level Cleveland Center
08:07PM 42.7144 -80.5944 270° West 390 449 28,000 -600 Level Cleveland Center
08:08PM 42.7081 -80.7386 267° West 390 449 26,900 -1,380 Descending Cleveland Center
08:09PM 42.7078 -80.8769 270° West 374 430 25,300 -1,800 Descending Cleveland Center
08:10PM 42.6928 -81.0097 261° West 363 418 23,400 -1,200 Descending Cleveland Center
08:11PM 42.6819 -81.1311 263° West 363 418 23,000 -240 Descending Cleveland Center
08:12PM 42.6644 -81.2636 260° West 358 412 23,000  Level Cleveland Center
08:13PM 42.6492 -81.3906 261° West 348 400 23,000  Level Cleveland Center
08:14PM 42.6356 -81.5231 262° West 353 406 23,000  Level Cleveland Center
08:15PM 42.6178 -81.6525 259° West 353 406 23,000 -600 Level Cleveland Center
08:16PM 42.6042 -81.7792 262° West 348 400 21,800 -1,380 Descending Cleveland Center
08:17PM 42.5858 -81.9200 260° West 348 400 20,300 -1,740 Descending Cleveland Center
08:18PM 42.5675 -82.0464 259° West 348 400 18,400 -1,740 Descending Cleveland Center
08:19PM 42.5536 -82.1644 261° West 348 400 16,900 -1,800 Descending Cleveland Center
08:20PM 42.5417 -82.2739 262° West 295 339 14,900 -2,280 Descending Cleveland Center
08:21PM 42.5317 -82.3694 262° West 299 344 12,900 -1,740 Descending Cleveland Center
08:22PM 42.5178 -82.4706 259° West 302 348 12,000 -780 Descending Cleveland Center
08:22PM 42.5131 -82.5014 258° West 305 351 12,000  Level Cleveland Center
08:23PM 42.4969 -82.5797 254° West 305 351 12,000  Level Cleveland Center
08:23PM 42.4881 -82.6106 249° West 305 351 12,000  Level Cleveland Center
08:24PM 42.4617 -82.6856 245° Southwest 303 349 12,000 -120 Level Cleveland Center
08:24PM 42.4508 -82.7106 240° Southwest 305 351 11,900  Descending Cleveland Center
08:25PM 42.4289 -82.7744 245° Southwest 248 285 12,000 60 Climbing Cleveland Center
08:25PM 42.4200 -82.7967 242° Southwest 286 329 12,000  Level Cleveland Center
08:26PM 42.3981 -82.8606 245° Southwest 238 274 12,000 -300 Level Cleveland Center
08:26PM 42.3894 -82.8744 230° Southwest 257 296 11,700 -1,020 Descending Cleveland Center
08:27PM 42.3717 -82.9328 248° West 224 258 11,000 -720 Descending Cleveland Center
08:27PM 42.3628 -82.9522 238° Southwest 242 278 11,000  Level Cleveland Center
08:28PM 42.3386 -83.0158 243° Southwest 204 235 11,000  Level Cleveland Center
08:29PM 42.3244 -83.0883 255° West 203 234 11,000  Level Cleveland Center
08:30PM 42.3150 -83.1369 255° West 204 235 11,000  Level FAA TRACON SMA TRACON (SMA)
08:30PM 42.2997 -83.1586 226° Southwest 212 244 11,000  Level FAA TRACON SMA TRACON (SMA)
08:31PM 42.2833 -83.1722 212° Southwest 221 254 11,000  Level FAA TRACON SMA TRACON (SMA)
08:31PM 42.2672 -83.1856 211° Southwest 221 254 11,000  Level FAA TRACON SMA TRACON (SMA)
08:31PM 42.2511 -83.1986 211° Southwest 219 252 11,000 -480 Level FAA TRACON SMA TRACON (SMA)
08:32PM 42.2311 -83.2147 211° Southwest 214 246 10,700 -1,320 Descending FAA TRACON SMA TRACON (SMA)
08:32PM 42.2144 -83.2256 206° Southwest 214 246 10,100 -1,980 Descending FAA TRACON SMA TRACON (SMA)
08:32PM 42.1928 -83.2397 206° Southwest 222 255 9,400 -1,980 Descending FAA TRACON SMA TRACON (SMA)
08:33PM 42.1758 -83.2514 207° Southwest 223 257 8,800 -1,740 Descending FAA TRACON SMA TRACON (SMA)
08:33PM 42.1589 -83.2636 208° Southwest 221 254 8,300 -1,800 Descending FAA TRACON SMA TRACON (SMA)
08:33PM 42.1422 -83.2756 208° Southwest 217 250 7,600 -2,400 Descending FAA TRACON SMA TRACON (SMA)
08:34PM 42.1219 -83.2906 209° Southwest 217 250 6,700 -2,280 Descending FAA TRACON SMA TRACON (SMA)
08:34PM 42.1056 -83.3033 210° Southwest 219 252 6,100 -1,920 Descending FAA TRACON SMA TRACON (SMA)
08:34PM 42.0892 -83.3161 210° Southwest 220 253 5,400 -2,160 Descending FAA TRACON SMA TRACON (SMA)
08:35PM 42.0728 -83.3294 211° Southwest 221 254 4,700 -2,100 Descending FAA TRACON SMA TRACON (SMA)
08:35PM 42.0531 -83.3467 213° Southwest 220 253 4,000 -1,080 Descending FAA TRACON SMA TRACON (SMA)
08:35PM 42.0369 -83.3578 207° Southwest 208 239 4,000  Level FAA TRACON SMA TRACON (SMA)
08:36PM 42.0172 -83.3697 204° Southwest 202 232 4,000  Level FAA TRACON SMA TRACON (SMA)
08:36PM 42.0014 -83.3794 205° Southwest 202 232 4,000  Level FAA TRACON SMA TRACON (SMA)
08:36PM 41.9856 -83.3883 203° Southwest 201 231 4,000  Level FAA TRACON SMA TRACON (SMA)
08:37PM 41.9697 -83.3975 203° Southwest 200 230 4,000 -180 Level FAA TRACON SMA TRACON (SMA)
08:37PM 41.9519 -83.4131 213° Southwest 190 219 3,900  Descending FAA TRACON SMA TRACON (SMA)
08:37PM 41.9486 -83.4336 258° West 185 213 4,000 120 Climbing FAA TRACON SMA TRACON (SMA)
08:38PM 41.9464 -83.4586 263° West 179 206 4,000  Level FAA TRACON SMA TRACON (SMA)
08:38PM 41.9450 -83.4778 264° West 176 203 4,000 -180 Level FAA TRACON SMA TRACON (SMA)
08:38PM 41.9461 -83.5014 274° West 177 204 3,900  Descending FAA TRACON SMA TRACON (SMA)
08:39PM 41.9603 -83.5133 328° Northwest 186 214 4,000 240 Climbing FAA TRACON SMA TRACON (SMA)